Time;durP1;ratioP1;P1;durP2;ratioP2;P2;SDS_P1;SDS_P2;PMS_P1;PMS_P2;Temp;Humidity;BMP_temperature;BMP_pressure;BME280_temperature;BME280_humidity;BME280_pressure;Samples;Min_cycle;Max_cycle;Signal;HPM_P1;HPM_P2
2022/07/16 00:03:41;;;;;;;;;;;22.10;48.60;;;;;;5074650;28;20365;-58
2022/07/16 00:06:09;;;;;;;;;;;22.10;48.30;;;;;;5090942;28;19956;-59
2022/07/16 00:08:36;;;;;;;;;;;22.10;48.30;;;;;;5107276;28;19920;-58
2022/07/16 00:11:03;;;;;;;;;;;22.10;48.30;;;;;;5080491;28;19966;-58
2022/07/16 00:13:30;;;;;;;;;;;22.10;48.30;;;;;;5107966;28;19924;-58
2022/07/16 00:15:57;;;;;;;;;;;22.10;48.30;;;;;;5071841;28;19920;-59
2022/07/16 00:21:09;;;;;;;;;;;22.10;48.30;;;;;;5107996;28;19920;-58
2022/07/16 00:23:36;;;;;;;;;;;22.10;48.30;;;;;;5074986;28;19960;-58
2022/07/16 00:26:02;;;;;;;;;;;22.10;48.30;;;;;;5073585;28;19964;-58
2022/07/16 00:28:29;;;;;;;;;;;22.10;48.30;;;;;;5074097;28;19970;-57
2022/07/16 00:30:56;;;;;;;;;;;22.00;48.20;;;;;;5105988;28;19920;-58
2022/07/16 00:33:23;;;;;;;;;;;22.10;48.30;;;;;;5074257;28;19920;-58
2022/07/16 00:35:50;;;;;;;;;;;22.10;48.30;;;;;;5074541;28;19927;-58
2022/07/16 00:38:18;;;;;;;;;;;22.00;48.30;;;;;;5074640;28;20286;-58
2022/07/16 00:40:44;;;;;;;;;;;22.00;48.30;;;;;;5082004;28;19921;-58
2022/07/16 00:43:12;;;;;;;;;;;22.00;48.30;;;;;;5093490;28;20360;-58
2022/07/16 00:45:38;;;;;;;;;;;22.00;48.40;;;;;;5094781;28;20022;-59
2022/07/16 00:48:05;;;;;;;;;;;22.00;48.40;;;;;;5110859;28;19920;-58
2022/07/16 00:50:32;;;;;;;;;;;22.00;48.40;;;;;;5082635;28;20412;-59
2022/07/16 00:52:59;;;;;;;;;;;22.00;48.50;;;;;;5073470;28;19975;-58
2022/07/16 00:55:27;;;;;;;;;;;22.00;48.50;;;;;;5056970;28;19955;-59
2022/07/16 00:57:55;;;;;;;;;;;22.00;48.50;;;;;;5106577;28;19921;-59
2022/07/16 01:00:21;;;;;;;;;;;22.00;48.60;;;;;;5105274;28;19973;-59
2022/07/16 01:02:48;;;;;;;;;;;22.00;48.60;;;;;;5074292;28;19990;-59
2022/07/16 01:05:15;;;;;;;;;;;22.00;48.70;;;;;;5070804;28;20308;-59
2022/07/16 01:07:41;;;;;;;;;;;22.00;48.70;;;;;;5089748;28;20411;-59
2022/07/16 01:10:09;;;;;;;;;;;22.00;48.80;;;;;;5090060;28;20309;-59
2022/07/16 01:12:37;;;;;;;;;;;22.00;48.80;;;;;;5105783;28;19967;-58
2022/07/16 01:15:04;;;;;;;;;;;22.00;48.90;;;;;;5092885;28;20369;-61
2022/07/16 01:17:31;;;;;;;;;;;22.00;48.90;;;;;;5110084;28;19921;-59
2022/07/16 01:19:58;;;;;;;;;;;22.00;49.00;;;;;;5098774;28;19982;-59
2022/07/16 01:22:25;;;;;;;;;;;22.00;49.00;;;;;;5054424;28;19920;-59
2022/07/16 01:24:53;;;;;;;;;;;22.00;49.10;;;;;;5069447;28;19967;-59
2022/07/16 01:27:20;;;;;;;;;;;22.00;49.10;;;;;;5053876;28;19927;-58
2022/07/16 01:29:47;;;;;;;;;;;22.00;49.10;;;;;;5071103;28;19924;-61
2022/07/16 01:32:13;;;;;;;;;;;22.00;49.10;;;;;;5070477;28;19921;-59
2022/07/16 01:34:40;;;;;;;;;;;22.00;49.10;;;;;;5107209;28;19921;-60
2022/07/16 01:37:07;;;;;;;;;;;22.00;49.00;;;;;;5072541;28;19931;-58
2022/07/16 01:39:39;;;;;;;;;;;22.00;49.60;;;;;;5104432;28;19927;-59
2022/07/16 01:42:08;;;;;;;;;;;22.00;49.00;;;;;;5074139;28;19920;-58
2022/07/16 01:44:35;;;;;;;;;;;22.00;49.00;;;;;;5070813;28;20338;-60
2022/07/16 01:47:02;;;;;;;;;;;22.00;48.90;;;;;;5074251;28;19927;-59
2022/07/16 01:49:30;;;;;;;;;;;22.10;49.00;;;;;;5070604;28;20087;-59
2022/07/16 01:51:58;;;;;;;;;;;22.00;48.90;;;;;;5089176;28;20285;-59
2022/07/16 01:54:24;;;;;;;;;;;22.10;49.00;;;;;;5089975;28;19920;-59
2022/07/16 01:56:51;;;;;;;;;;;22.10;49.00;;;;;;5075207;28;19967;-59
2022/07/16 01:59:19;;;;;;;;;;;22.00;48.90;;;;;;5093599;28;20351;-59
2022/07/16 02:01:46;;;;;;;;;;;22.00;48.90;;;;;;5094926;28;20488;-59
2022/07/16 02:04:13;;;;;;;;;;;22.10;49.60;;;;;;5096501;28;19920;-60
2022/07/16 02:06:39;;;;;;;;;;;22.00;48.90;;;;;;5096053;28;19924;-59
2022/07/16 02:09:06;;;;;;;;;;;22.10;49.00;;;;;;5096101;28;20331;-60
2022/07/16 02:11:33;;;;;;;;;;;22.10;49.00;;;;;;5097459;28;19981;-58
2022/07/16 02:13:59;;;;;;;;;;;22.10;49.00;;;;;;5077334;28;19924;-59
2022/07/16 02:16:28;;;;;;;;;;;22.10;49.00;;;;;;5092512;28;19920;-61
2022/07/16 02:18:54;;;;;;;;;;;22.10;49.00;;;;;;5077271;28;20440;-59
2022/07/16 02:21:21;;;;;;;;;;;22.10;49.00;;;;;;5092674;28;19924;-59
2022/07/16 02:23:48;;;;;;;;;;;22.10;49.00;;;;;;5093190;28;20406;-59
2022/07/16 02:26:14;;;;;;;;;;;22.10;49.00;;;;;;5074726;28;19928;-59
2022/07/16 02:28:41;;;;;;;;;;;22.10;49.00;;;;;;5093244;28;19943;-59
2022/07/16 02:31:08;;;;;;;;;;;22.10;49.00;;;;;;5092595;28;19920;-59
2022/07/16 02:33:36;;;;;;;;;;;22.10;49.00;;;;;;5076656;28;19974;-59
2022/07/16 02:36:03;;;;;;;;;;;22.10;49.00;;;;;;5093044;28;19960;-59
2022/07/16 02:38:29;;;;;;;;;;;22.10;49.00;;;;;;5092381;28;19974;-59
2022/07/16 02:40:56;;;;;;;;;;;22.10;49.00;;;;;;5076836;28;19924;-59
2022/07/16 02:43:23;;;;;;;;;;;22.10;49.10;;;;;;5092797;28;19920;-59
2022/07/16 02:45:50;;;;;;;;;;;22.10;49.10;;;;;;5090467;28;19970;-59
2022/07/16 02:48:16;;;;;;;;;;;22.10;49.10;;;;;;5092341;28;20087;-59
2022/07/16 02:50:44;;;;;;;;;;;22.10;49.10;;;;;;5092113;28;20308;-59
2022/07/16 02:53:11;;;;;;;;;;;22.10;49.10;;;;;;5092383;28;19982;-59
2022/07/16 02:55:38;;;;;;;;;;;22.10;49.10;;;;;;5075091;28;19920;-59
2022/07/16 02:58:04;;;;;;;;;;;22.20;49.20;;;;;;5092222;28;19920;-59
2022/07/16 03:00:31;;;;;;;;;;;22.10;49.20;;;;;;5090857;28;20011;-58
2022/07/16 03:02:58;;;;;;;;;;;22.10;49.20;;;;;;5076262;28;19920;-58
2022/07/16 03:05:25;;;;;;;;;;;22.20;49.40;;;;;;5091720;28;19970;-58
2022/07/16 03:07:53;;;;;;;;;;;22.10;49.40;;;;;;5091711;28;20326;-58
2022/07/16 03:10:20;;;;;;;;;;;22.10;49.50;;;;;;5092325;28;20023;-58
2022/07/16 03:12:46;;;;;;;;;;;22.20;49.50;;;;;;5091991;28;19920;-58
2022/07/16 03:15:13;;;;;;;;;;;22.10;49.50;;;;;;5089465;28;19966;-58
2022/07/16 03:17:40;;;;;;;;;;;22.10;49.70;;;;;;5073764;28;19931;-58
2022/07/16 03:20:07;;;;;;;;;;;22.10;49.70;;;;;;5074266;28;20390;-60
2022/07/16 03:22:34;;;;;;;;;;;22.10;49.70;;;;;;5108548;28;19978;-60
2022/07/16 03:25:02;;;;;;;;;;;22.10;49.80;;;;;;5108613;28;20299;-60
2022/07/16 03:27:29;;;;;;;;;;;22.10;49.80;;;;;;5074716;28;20061;-58
2022/07/16 03:29:55;;;;;;;;;;;22.10;49.80;;;;;;5106273;28;20443;-58
2022/07/16 03:32:22;;;;;;;;;;;22.10;50.00;;;;;;5073353;28;20261;-58
2022/07/16 03:34:49;;;;;;;;;;;22.10;50.10;;;;;;5091391;28;19925;-58
2022/07/16 03:37:16;;;;;;;;;;;22.10;50.10;;;;;;5089311;28;19920;-58
2022/07/16 03:39:42;;;;;;;;;;;22.10;50.10;;;;;;5071729;28;20007;-58
2022/07/16 03:42:10;;;;;;;;;;;22.10;50.00;;;;;;5091158;28;20014;-58
2022/07/16 03:44:37;;;;;;;;;;;22.10;50.10;;;;;;5074222;28;19921;-58
2022/07/16 03:47:04;;;;;;;;;;;22.10;50.20;;;;;;5075364;28;19981;-58
2022/07/16 03:49:30;;;;;;;;;;;22.10;50.20;;;;;;5073230;28;20273;-58
2022/07/16 03:51:57;;;;;;;;;;;22.10;50.30;;;;;;5108054;28;19974;-58
2022/07/16 03:54:24;;;;;;;;;;;22.10;50.30;;;;;;5107640;28;20013;-58
2022/07/16 03:56:50;;;;;;;;;;;22.00;50.20;;;;;;5075242;28;20345;-58
2022/07/16 03:59:18;;;;;;;;;;;22.10;50.30;;;;;;5073849;28;19966;-60
2022/07/16 04:01:45;;;;;;;;;;;22.10;50.30;;;;;;5108460;28;19924;-58
2022/07/16 04:04:12;;;;;;;;;;;22.00;50.20;;;;;;5073947;28;19924;-58
2022/07/16 04:06:39;;;;;;;;;;;22.10;50.30;;;;;;5105967;28;19982;-58
2022/07/16 04:09:05;;;;;;;;;;;22.00;50.20;;;;;;5074876;28;20372;-58
2022/07/16 04:11:32;;;;;;;;;;;22.00;50.20;;;;;;5071707;28;19924;-58
2022/07/16 04:13:59;;;;;;;;;;;22.10;50.50;;;;;;5056985;28;19927;-59
2022/07/16 04:16:27;;;;;;;;;;;22.10;50.70;;;;;;5107360;28;20286;-59
2022/07/16 04:18:54;;;;;;;;;;;22.00;50.70;;;;;;5073717;28;19928;-59
2022/07/16 04:21:20;;;;;;;;;;;22.00;50.70;;;;;;5071631;28;19920;-58
2022/07/16 04:23:47;;;;;;;;;;;22.00;50.80;;;;;;5074745;28;19966;-57
2022/07/16 04:26:14;;;;;;;;;;;22.00;50.80;;;;;;5105757;28;19977;-59
2022/07/16 04:28:41;;;;;;;;;;;22.00;50.90;;;;;;5075092;28;19968;-59
2022/07/16 04:31:08;;;;;;;;;;;21.90;50.80;;;;;;5088393;28;19931;-59
2022/07/16 04:33:36;;;;;;;;;;;21.90;50.80;;;;;;5088585;28;19966;-60
2022/07/16 04:36:03;;;;;;;;;;;21.90;50.70;;;;;;5073648;28;19920;-59
2022/07/16 04:38:30;;;;;;;;;;;21.90;50.90;;;;;;5107651;28;20362;-59
2022/07/16 04:40:57;;;;;;;;;;;21.90;50.90;;;;;;5073025;28;20014;-59
2022/07/16 04:43:24;;;;;;;;;;;21.90;50.90;;;;;;5107348;28;20297;-59
2022/07/16 04:45:50;;;;;;;;;;;21.90;50.90;;;;;;5074886;28;19927;-59
2022/07/16 04:48:17;;;;;;;;;;;21.90;50.90;;;;;;5107048;28;19921;-61
2022/07/16 04:50:45;;;;;;;;;;;21.90;50.80;;;;;;5105338;28;19960;-59
2022/07/16 04:53:12;;;;;;;;;;;21.80;50.60;;;;;;5089836;28;19985;-59
2022/07/16 04:55:39;;;;;;;;;;;21.80;50.60;;;;;;5089441;28;20268;-59
2022/07/16 04:58:05;;;;;;;;;;;21.80;50.50;;;;;;5075156;28;19921;-58
2022/07/16 05:00:32;;;;;;;;;;;21.90;50.50;;;;;;5090466;28;19921;-58
2022/07/16 05:02:59;;;;;;;;;;;21.90;50.40;;;;;;5073715;28;19925;-59
2022/07/16 05:05:26;;;;;;;;;;;21.90;50.40;;;;;;5074068;28;20362;-56
2022/07/16 05:07:54;;;;;;;;;;;21.90;50.30;;;;;;5089753;28;19970;-58
2022/07/16 05:10:21;;;;;;;;;;;21.90;50.30;;;;;;5089877;28;19966;-59
2022/07/16 05:12:48;;;;;;;;;;;21.90;50.30;;;;;;5090601;28;20019;-57
2022/07/16 05:15:15;;;;;;;;;;;21.90;50.30;;;;;;5090007;28;19920;-59
2022/07/16 05:17:41;;;;;;;;;;;21.90;50.30;;;;;;5074068;28;19924;-58
2022/07/16 05:20:09;;;;;;;;;;;21.90;50.40;;;;;;5071977;28;20307;-57
2022/07/16 05:22:36;;;;;;;;;;;21.90;50.40;;;;;;5090262;28;19982;-59
2022/07/16 05:25:04;;;;;;;;;;;21.90;50.60;;;;;;5070853;28;19920;-58
2022/07/16 05:27:31;;;;;;;;;;;21.90;50.70;;;;;;5073978;28;20365;-58
2022/07/16 05:29:57;;;;;;;;;;;21.90;50.70;;;;;;5106921;28;19966;-59
2022/07/16 05:32:24;;;;;;;;;;;21.90;50.70;;;;;;5111196;28;19921;-57
2022/07/16 05:34:51;;;;;;;;;;;21.90;50.50;;;;;;5076441;28;19967;-58
2022/07/16 05:37:18;;;;;;;;;;;21.90;50.50;;;;;;5078122;28;19921;-58
2022/07/16 05:39:44;;;;;;;;;;;21.90;50.60;;;;;;5110819;28;19921;-59
2022/07/16 05:42:14;;;;;;;;;;;21.90;50.60;;;;;;5110367;28;19922;-59
2022/07/16 05:44:40;;;;;;;;;;;21.90;50.50;;;;;;5077269;28;19924;-59
2022/07/16 05:47:07;;;;;;;;;;;21.90;50.50;;;;;;5076599;28;19955;-58
2022/07/16 05:49:34;;;;;;;;;;;21.90;50.50;;;;;;5075521;28;19920;-59
2022/07/16 05:52:00;;;;;;;;;;;21.90;50.80;;;;;;5094080;28;19928;-58
2022/07/16 05:54:27;;;;;;;;;;;21.90;50.80;;;;;;5075890;28;19928;-58
2022/07/16 05:56:54;;;;;;;;;;;21.90;50.90;;;;;;5093148;28;19974;-57
2022/07/16 05:59:22;;;;;;;;;;;21.90;51.00;;;;;;5090544;28;19932;-58
2022/07/16 06:01:49;;;;;;;;;;;21.90;50.90;;;;;;5072359;28;19958;-57
2022/07/16 06:04:16;;;;;;;;;;;21.80;50.80;;;;;;5072776;28;20026;-59
2022/07/16 06:06:43;;;;;;;;;;;21.80;50.80;;;;;;5102511;27;19920;-59
2022/07/16 06:09:09;;;;;;;;;;;21.80;50.80;;;;;;5074164;28;19920;-59
2022/07/16 06:11:36;;;;;;;;;;;21.80;50.90;;;;;;5071779;28;20383;-58
2022/07/16 06:14:03;;;;;;;;;;;21.80;50.90;;;;;;5102399;28;19940;-59
2022/07/16 06:16:31;;;;;;;;;;;21.80;50.80;;;;;;5102431;28;19928;-58
2022/07/16 06:18:58;;;;;;;;;;;21.70;50.50;;;;;;5103908;28;19920;-58
2022/07/16 06:21:25;;;;;;;;;;;21.80;50.50;;;;;;5070671;28;19952;-59
2022/07/16 06:23:51;;;;;;;;;;;21.70;50.20;;;;;;5070559;28;19920;-59
2022/07/16 06:26:18;;;;;;;;;;;21.70;49.90;;;;;;5070205;28;19924;-58
2022/07/16 06:28:45;;;;;;;;;;;21.70;49.90;;;;;;5104071;28;19920;-59
2022/07/16 06:31:11;;;;;;;;;;;21.60;49.70;;;;;;5069649;28;20281;-58
2022/07/16 06:33:40;;;;;;;;;;;21.60;49.70;;;;;;5072466;28;19930;-58
2022/07/16 06:36:06;;;;;;;;;;;21.60;49.70;;;;;;5070359;28;20376;-59
2022/07/16 06:38:33;;;;;;;;;;;21.60;49.70;;;;;;5084949;28;19925;-58
2022/07/16 06:41:00;;;;;;;;;;;21.50;49.60;;;;;;5104773;28;19970;-58
2022/07/16 06:43:27;;;;;;;;;;;21.50;49.60;;;;;;5071782;28;19936;-58
2022/07/16 06:45:53;;;;;;;;;;;21.50;49.60;;;;;;5102787;28;19931;-58
2022/07/16 06:48:20;;;;;;;;;;;21.50;49.50;;;;;;5068841;28;19921;-58
2022/07/16 06:50:48;;;;;;;;;;;21.50;49.40;;;;;;5072167;28;19974;-58
2022/07/16 06:53:15;;;;;;;;;;;21.40;49.20;;;;;;5088109;28;19920;-58
2022/07/16 06:55:41;;;;;;;;;;;21.40;49.20;;;;;;5070970;28;19924;-58
2022/07/16 06:58:09;;;;;;;;;;;21.40;49.30;;;;;;5088064;28;20385;-59
2022/07/16 07:00:35;;;;;;;;;;;21.40;49.20;;;;;;5104520;28;20369;-58
2022/07/16 07:03:02;;;;;;;;;;;21.40;49.20;;;;;;5072154;28;19921;-58
2022/07/16 07:05:30;;;;;;;;;;;21.40;49.10;;;;;;5092392;28;19974;-59
2022/07/16 07:07:58;;;;;;;;;;;21.40;48.90;;;;;;5077066;28;19939;-58
2022/07/16 07:10:25;;;;;;;;;;;21.30;48.80;;;;;;5081619;28;19927;-59
2022/07/16 07:12:52;;;;;;;;;;;21.30;48.80;;;;;;5073677;28;19960;-60
2022/07/16 07:15:19;;;;;;;;;;;21.30;48.80;;;;;;5071800;28;19952;-58
2022/07/16 07:17:46;;;;;;;;;;;21.30;48.80;;;;;;5071938;28;20329;-58
2022/07/16 07:20:13;;;;;;;;;;;21.30;48.70;;;;;;5087782;28;19921;-59
2022/07/16 07:22:39;;;;;;;;;;;21.30;48.40;;;;;;5095534;28;20328;-60
2022/07/16 07:25:08;;;;;;;;;;;21.30;48.40;;;;;;5088295;28;19921;-58
2022/07/16 07:27:35;;;;;;;;;;;21.30;48.40;;;;;;5088444;28;20376;-58
2022/07/16 07:30:01;;;;;;;;;;;21.20;48.30;;;;;;5085409;28;19920;-58
2022/07/16 07:32:28;;;;;;;;;;;21.30;48.20;;;;;;5091974;28;19920;-58
2022/07/16 07:34:55;;;;;;;;;;;21.20;48.00;;;;;;5096028;27;19925;-58
2022/07/16 07:37:22;;;;;;;;;;;21.20;48.10;;;;;;5069257;28;19927;-57
2022/07/16 07:39:48;;;;;;;;;;;21.20;48.10;;;;;;5064756;28;20381;-57
2022/07/16 07:42:16;;;;;;;;;;;21.20;47.80;;;;;;5086183;28;19927;-58
2022/07/16 07:44:43;;;;;;;;;;;21.20;47.60;;;;;;5065713;28;19950;-58
2022/07/16 07:47:10;;;;;;;;;;;21.20;47.60;;;;;;5104926;28;19920;-58
2022/07/16 07:49:37;;;;;;;;;;;21.10;47.40;;;;;;5074742;28;20007;-58
2022/07/16 07:52:04;;;;;;;;;;;21.10;47.30;;;;;;5104693;28;20002;-58
2022/07/16 07:54:31;;;;;;;;;;;21.10;47.40;;;;;;5069986;28;19928;-57
2022/07/16 07:56:57;;;;;;;;;;;21.10;47.30;;;;;;5072257;28;20288;-58
2022/07/16 07:59:26;;;;;;;;;;;21.10;47.90;;;;;;5093559;28;19965;-58
2022/07/16 08:01:52;;;;;;;;;;;21.10;48.00;;;;;;5083049;28;19961;-60
2022/07/16 08:04:19;;;;;;;;;;;21.10;48.00;;;;;;5075959;28;19960;-59
2022/07/16 08:06:46;;;;;;;;;;;21.10;48.20;;;;;;5084960;28;19927;-60
2022/07/16 08:09:13;;;;;;;;;;;21.10;48.30;;;;;;5090570;28;19921;-58
2022/07/16 08:11:39;;;;;;;;;;;21.10;48.30;;;;;;5065916;28;19944;-60
2022/07/16 08:14:06;;;;;;;;;;;21.20;48.40;;;;;;5062852;28;20289;-59
2022/07/16 08:16:34;;;;;;;;;;;21.20;48.50;;;;;;5060706;28;19924;-59
2022/07/16 08:19:01;;;;;;;;;;;21.20;48.40;;;;;;5066600;28;20007;-59
2022/07/16 08:21:27;;;;;;;;;;;21.20;48.40;;;;;;5084474;28;20287;-58
2022/07/16 08:26:39;;;;;;;;;;;21.30;48.60;;;;;;5076771;28;20305;-59
2022/07/16 08:29:05;;;;;;;;;;;21.30;48.60;;;;;;5102774;28;20024;-58
2022/07/16 08:31:32;;;;;;;;;;;21.30;48.60;;;;;;5078313;28;19920;-58
2022/07/16 08:34:00;;;;;;;;;;;21.30;48.50;;;;;;5074919;28;19975;-59
2022/07/16 08:36:27;;;;;;;;;;;21.30;48.40;;;;;;5091075;28;20404;-57
2022/07/16 08:38:54;;;;;;;;;;;21.30;48.30;;;;;;5067054;28;20408;-58
2022/07/16 08:41:20;;;;;;;;;;;21.40;48.20;;;;;;5097179;28;19970;-59
2022/07/16 08:43:47;;;;;;;;;;;21.40;48.10;;;;;;5056507;28;20312;-58
2022/07/16 08:46:14;;;;;;;;;;;21.40;48.00;;;;;;5103292;28;19963;-58
2022/07/16 08:48:40;;;;;;;;;;;21.40;48.00;;;;;;5072742;28;19980;-59
2022/07/16 08:51:09;;;;;;;;;;;21.40;47.80;;;;;;5048904;28;19960;-58
2022/07/16 08:53:35;;;;;;;;;;;21.40;47.70;;;;;;5069405;28;19925;-58
2022/07/16 08:56:02;;;;;;;;;;;21.40;47.50;;;;;;5085471;28;19920;-58
2022/07/16 08:58:30;;;;;;;;;;;21.40;47.40;;;;;;5069441;28;20387;-58
2022/07/16 09:00:56;;;;;;;;;;;21.40;47.20;;;;;;5066915;28;19920;-61
2022/07/16 09:03:23;;;;;;;;;;;21.40;47.00;;;;;;5082647;28;20384;-58
2022/07/16 09:05:50;;;;;;;;;;;21.40;46.80;;;;;;5087094;28;20526;-58
2022/07/16 09:08:19;;;;;;;;;;;21.40;46.60;;;;;;5083040;28;19963;-58
2022/07/16 09:10:45;;;;;;;;;;;21.40;46.20;;;;;;5082633;28;19942;-58
2022/07/16 09:13:12;;;;;;;;;;;21.40;46.10;;;;;;5077904;28;19973;-57
2022/07/16 09:15:39;;;;;;;;;;;21.40;45.90;;;;;;5093713;28;20268;-58
2022/07/16 09:18:14;;;;;;;;;;;21.40;45.60;;;;;;5084077;28;19927;-59
2022/07/16 09:20:41;;;;;;;;;;;21.30;45.40;;;;;;5077120;28;20379;-59
2022/07/16 09:23:23;;;;;;;;;;;21.40;45.40;;;;;;5081973;28;19932;-59
2022/07/16 09:25:50;;;;;;;;;;;21.40;45.40;;;;;;5090320;28;19930;-59
2022/07/16 09:28:17;;;;;;;;;;;21.40;45.40;;;;;;5067945;28;19925;-59
2022/07/16 09:30:44;;;;;;;;;;;21.40;45.30;;;;;;5069725;28;19932;-58
2022/07/16 09:33:14;;;;;;;;;;;21.40;45.30;;;;;;5102443;28;19932;-59
2022/07/16 09:35:41;;;;;;;;;;;21.30;45.20;;;;;;5064029;28;19924;-58
2022/07/16 09:38:09;;;;;;;;;;;21.40;45.30;;;;;;5085684;28;20341;-58
2022/07/16 09:40:38;;;;;;;;;;;21.30;45.40;;;;;;5070799;28;19920;-58
2022/07/16 09:43:05;;;;;;;;;;;21.40;45.40;;;;;;5070092;28;19924;-58
2022/07/16 09:45:31;;;;;;;;;;;21.40;45.40;;;;;;5093055;28;19927;-59
2022/07/16 09:47:58;;;;;;;;;;;21.40;45.50;;;;;;5102034;28;19933;-60
2022/07/16 09:50:25;;;;;;;;;;;21.40;45.50;;;;;;5071831;28;19921;-58
2022/07/16 09:52:52;;;;;;;;;;;21.40;45.50;;;;;;5101977;28;19923;-59
2022/07/16 09:55:18;;;;;;;;;;;21.40;45.60;;;;;;5097955;28;19943;-59
2022/07/16 09:57:47;;;;;;;;;;;21.40;45.60;;;;;;5078401;28;20384;-59
2022/07/16 10:00:13;;;;;;;;;;;21.40;45.60;;;;;;5064710;28;19925;-60
2022/07/16 10:02:42;;;;;;;;;;;21.40;45.60;;;;;;5068684;28;19927;-59
2022/07/16 10:05:09;;;;;;;;;;;21.40;45.50;;;;;;5072421;28;20035;-59
2022/07/16 10:07:35;;;;;;;;;;;21.40;45.50;;;;;;5068536;28;20349;-59
2022/07/16 10:10:02;;;;;;;;;;;21.40;45.50;;;;;;5085358;28;19919;-59
2022/07/16 10:12:30;;;;;;;;;;;21.40;45.40;;;;;;5081117;28;19920;-59
2022/07/16 10:14:58;;;;;;;;;;;21.40;45.40;;;;;;5097291;28;19942;-58
2022/07/16 10:17:32;;;;;;;;;;;21.40;45.50;;;;;;5081536;28;19943;-59
2022/07/16 10:20:00;;;;;;;;;;;21.50;45.60;;;;;;5073863;28;20032;-59
2022/07/16 10:22:28;;;;;;;;;;;21.50;45.60;;;;;;5090913;28;20296;-58
2022/07/16 10:24:55;;;;;;;;;;;21.50;45.60;;;;;;5082719;28;20179;-59
2022/07/16 10:27:26;;;;;;;;;;;21.50;45.60;;;;;;5072750;28;20362;-59
2022/07/16 10:33:06;;;;;;;;;;;21.50;45.70;;;;;;5098792;27;19920;-58
2022/07/16 10:35:34;;;;;;;;;;;21.50;45.70;;;;;;5103913;28;19924;-59
2022/07/16 10:38:04;;;;;;;;;;;21.50;45.70;;;;;;5107943;28;20361;-58
2022/07/16 10:40:31;;;;;;;;;;;21.50;45.80;;;;;;5109132;28;19920;-59
2022/07/16 10:43:09;;;;;;;;;;;21.50;45.70;;;;;;5082615;28;19956;-59
2022/07/16 10:45:48;;;;;;;;;;;21.50;45.70;;;;;;5103490;28;19927;-59
2022/07/16 10:48:15;;;;;;;;;;;21.50;45.70;;;;;;5122315;28;20010;-57
2022/07/16 10:50:43;;;;;;;;;;;21.50;45.60;;;;;;5116443;28;20006;-59
2022/07/16 10:53:10;;;;;;;;;;;21.50;45.50;;;;;;5110812;28;19931;-59
2022/07/16 10:55:40;;;;;;;;;;;21.50;45.40;;;;;;5109425;28;19955;-58
2022/07/16 10:58:07;;;;;;;;;;;21.50;45.10;;;;;;5093552;28;19938;-57
2022/07/16 11:00:33;;;;;;;;;;;21.50;45.20;;;;;;5110542;28;19920;-58
2022/07/16 11:03:00;;;;;;;;;;;21.50;45.10;;;;;;5105536;28;19973;-59
2022/07/16 11:05:28;;;;;;;;;;;21.50;45.10;;;;;;5100279;28;20395;-59
2022/07/16 11:07:57;;;;;;;;;;;21.50;45.10;;;;;;5106866;28;19931;-60
2022/07/16 11:10:24;;;;;;;;;;;21.50;45.10;;;;;;5130007;27;19920;-61
2022/07/16 11:12:50;;;;;;;;;;;21.50;45.10;;;;;;5099281;28;19921;-59
2022/07/16 11:15:17;;;;;;;;;;;21.50;45.00;;;;;;5073845;28;19921;-58
2022/07/16 11:17:44;;;;;;;;;;;21.50;45.10;;;;;;5085395;28;19924;-58
2022/07/16 11:20:11;;;;;;;;;;;21.50;45.00;;;;;;5091585;28;19927;-60
2022/07/16 11:22:38;;;;;;;;;;;21.50;45.00;;;;;;5119888;28;20143;-58
2022/07/16 11:25:07;;;;;;;;;;;21.50;44.90;;;;;;5092452;28;19986;-59
2022/07/16 11:27:34;;;;;;;;;;;21.50;44.90;;;;;;5122078;28;19935;-59
2022/07/16 11:30:01;;;;;;;;;;;21.50;44.80;;;;;;5090429;28;19920;-58
2022/07/16 11:32:28;;;;;;;;;;;21.50;44.80;;;;;;5120875;27;19963;-59
2022/07/16 11:34:55;;;;;;;;;;;21.50;44.70;;;;;;5116736;27;19955;-58
2022/07/16 11:37:22;;;;;;;;;;;21.50;44.60;;;;;;5113026;28;19923;-58
2022/07/16 11:39:49;;;;;;;;;;;21.50;44.50;;;;;;5116854;28;19927;-59
2022/07/16 11:42:20;;;;;;;;;;;21.60;44.60;;;;;;5104435;28;19950;-59
2022/07/16 11:44:47;;;;;;;;;;;21.60;44.50;;;;;;5104523;28;19921;-59
2022/07/16 11:47:13;;;;;;;;;;;21.50;44.30;;;;;;5095637;28;19924;-59
2022/07/16 11:49:41;;;;;;;;;;;21.50;44.10;;;;;;5107470;28;19955;-58
2022/07/16 11:52:09;;;;;;;;;;;21.60;44.00;;;;;;5101683;28;19932;-59
2022/07/16 11:54:36;;;;;;;;;;;21.50;43.90;;;;;;5106929;28;20343;-58
2022/07/16 11:57:03;;;;;;;;;;;21.50;43.90;;;;;;5108700;28;20368;-58
2022/07/16 11:59:32;;;;;;;;;;;21.50;43.80;;;;;;5094290;28;19977;-58
2022/07/16 12:01:59;;;;;;;;;;;21.50;43.80;;;;;;5106607;28;20351;-58
2022/07/16 12:04:36;;;;;;;;;;;21.50;43.80;;;;;;5107211;28;19923;-59
2022/07/16 12:07:03;;;;;;;;;;;21.50;43.80;;;;;;5097280;28;19920;-58
2022/07/16 12:09:31;;;;;;;;;;;21.50;43.70;;;;;;5090652;28;19920;-59
2022/07/16 12:12:01;;;;;;;;;;;21.50;43.70;;;;;;5072727;28;19924;-59
2022/07/16 12:14:49;;;;;;;;;;;21.50;43.80;;;;;;5098198;28;19932;-58
2022/07/16 12:17:22;;;;;;;;;;;21.50;43.80;;;;;;5100318;28;20026;-59
2022/07/16 12:20:02;;;;;;;;;;;21.50;43.80;;;;;;5086674;28;19931;-59
2022/07/16 12:22:47;;;;;;;;;;;21.50;43.80;;;;;;5108578;27;19924;-59
2022/07/16 12:25:21;;;;;;;;;;;21.50;43.70;;;;;;5100191;28;19921;-58
2022/07/16 12:27:49;;;;;;;;;;;21.50;43.70;;;;;;5105040;28;19920;-59
2022/07/16 12:30:17;;;;;;;;;;;21.60;43.80;;;;;;5084628;28;19951;-59
2022/07/16 12:32:50;;;;;;;;;;;21.60;43.80;;;;;;5116122;27;19946;-59
2022/07/16 12:35:39;;;;;;;;;;;21.60;43.80;;;;;;5088986;28;19924;-59
2022/07/16 12:38:05;;;;;;;;;;;21.60;43.80;;;;;;5099540;28;19992;-59
2022/07/16 12:40:33;;;;;;;;;;;21.60;43.80;;;;;;5093343;28;19935;-59
2022/07/16 12:43:00;;;;;;;;;;;21.60;43.80;;;;;;5108546;28;19927;-59
2022/07/16 12:45:28;;;;;;;;;;;21.60;43.80;;;;;;5102727;28;20285;-58
2022/07/16 12:47:55;;;;;;;;;;;21.60;43.80;;;;;;5089376;28;19951;-59
2022/07/16 12:50:22;;;;;;;;;;;21.60;43.70;;;;;;5101238;28;20338;-58
2022/07/16 12:52:49;;;;;;;;;;;21.60;43.70;;;;;;5079309;28;19924;-59
2022/07/16 13:00:45;;;;;;;;;;;21.60;43.60;;;;;;5099094;28;20388;-55
2022/07/16 13:03:11;;;;;;;;;;;21.60;43.50;;;;;;5080093;28;20001;-58
2022/07/16 13:05:38;;;;;;;;;;;21.60;43.50;;;;;;5093986;28;19956;-58
2022/07/16 13:08:05;;;;;;;;;;;21.60;43.40;;;;;;5074655;28;20422;-59
2022/07/16 13:10:32;;;;;;;;;;;21.60;43.30;;;;;;5085358;28;19920;-59
2022/07/16 13:12:59;;;;;;;;;;;21.60;43.40;;;;;;5068412;28;19924;-58
2022/07/16 13:15:25;;;;;;;;;;;21.60;43.40;;;;;;5086470;28;20451;-58
2022/07/16 13:17:53;;;;;;;;;;;21.60;43.40;;;;;;5084594;28;19926;-59
2022/07/16 13:20:20;;;;;;;;;;;21.60;43.40;;;;;;5103338;28;19927;-58
2022/07/16 13:22:47;;;;;;;;;;;21.60;43.30;;;;;;5081395;28;20273;-59
2022/07/16 13:25:14;;;;;;;;;;;21.60;43.20;;;;;;5085451;28;19979;-59
2022/07/16 13:27:40;;;;;;;;;;;21.60;43.80;;;;;;5106578;28;20353;-59
2022/07/16 13:30:07;;;;;;;;;;;21.60;43.20;;;;;;5105442;28;19962;-59
2022/07/16 13:32:34;;;;;;;;;;;21.60;43.20;;;;;;5064793;28;19925;-58
2022/07/16 13:35:02;;;;;;;;;;;21.60;43.00;;;;;;5117840;27;20403;-59
2022/07/16 13:37:29;;;;;;;;;;;21.60;43.00;;;;;;5084838;28;20409;-58
2022/07/16 13:39:56;;;;;;;;;;;21.60;42.80;;;;;;5106532;28;19920;-59
2022/07/16 13:42:22;;;;;;;;;;;21.60;42.90;;;;;;5105651;28;19932;-59
2022/07/16 13:44:49;;;;;;;;;;;21.60;42.70;;;;;;5104630;28;19924;-58
2022/07/16 13:47:16;;;;;;;;;;;21.60;42.60;;;;;;5099570;28;19920;-59
2022/07/16 13:49:42;;;;;;;;;;;21.60;42.60;;;;;;5080080;28;19932;-58
2022/07/16 13:52:10;;;;;;;;;;;21.60;42.50;;;;;;5089220;28;19920;-58
2022/07/16 13:54:37;;;;;;;;;;;21.60;42.60;;;;;;5084753;28;20270;-58
2022/07/16 13:59:45;;;;;;;;;;;21.60;42.50;;;;;;5084307;28;19974;-59
2022/07/16 14:02:13;;;;;;;;;;;21.60;42.50;;;;;;5082564;28;20353;-58
2022/07/16 14:04:40;;;;;;;;;;;21.60;42.50;;;;;;5090465;28;20354;-59
2022/07/16 14:07:07;;;;;;;;;;;21.60;42.40;;;;;;5071509;28;19920;-57
2022/07/16 14:09:36;;;;;;;;;;;21.60;42.40;;;;;;5101005;28;19920;-58
2022/07/16 14:12:03;;;;;;;;;;;21.60;42.30;;;;;;5098759;28;20414;-58
2022/07/16 14:14:31;;;;;;;;;;;21.60;42.30;;;;;;5083636;28;19924;-58
2022/07/16 14:16:57;;;;;;;;;;;21.60;42.20;;;;;;5091848;28;19928;-58
2022/07/16 14:19:24;;;;;;;;;;;21.60;42.20;;;;;;5090398;28;20284;-59
2022/07/16 14:21:51;;;;;;;;;;;21.60;42.10;;;;;;5086301;28;19928;-58
2022/07/16 14:24:17;;;;;;;;;;;21.60;42.10;;;;;;5065472;28;19974;-58
2022/07/16 14:26:45;;;;;;;;;;;21.60;42.00;;;;;;5094400;28;19920;-58
2022/07/16 14:29:12;;;;;;;;;;;21.60;42.00;;;;;;5113204;27;19921;-59
2022/07/16 14:31:39;;;;;;;;;;;21.60;42.00;;;;;;5094153;28;19925;-59
2022/07/16 14:34:06;;;;;;;;;;;21.60;42.00;;;;;;5116777;28;19920;-57
2022/07/16 14:36:32;;;;;;;;;;;21.60;42.00;;;;;;5091225;28;19973;-59